Detailed Flight Report of Nuri Burak ERKAL ;
Number CXD079 
Departure Aerodrome LMML 
Arrival Aerodrome LTBS

Map generated by the Great Circle Mapper - copyright © Karl L. Swartz.

Pilot In Command CXD079 : Nuri Burak Erkal
Aircraft B773 / TC-NZL
Date Of Flight 2020-06-13
Departure Time 14:47 UTC
Arrival Time 16:29 UTC
Block Time 01:42
Distance 721 Nm.
Used Fuel 26,867 Lbs.
   
Detailed Flight Log [2020/06/13 14:46:00]
Flight IATA:C001
Pilot Number:079
Company ICAO:CXD
Aircraft Type:B773
Aircraft Registration:TC-NZL
Departing Airport: LMML
Destination Airport: LTBS
Alternate Airport:LTBJ
Online: VATSIM
Route:AGARI M978 BINKO N45 ROTAS UN45 MONUV UP32 MIL UM601 RDS UN136 SOTIV
Flight Level:FL370
No pause
14:46 Zero fuel Weight: 511113 Lbs, Fuel Weight: 44268 Lbs
14:46 VATSIM:LMML 112115Z 19003KT CAVOK 21/12 Q1014 NOSIG
14:46 VATSIM:LTBS 112120Z 04003KT 020V080 CAVOK 19/17 Q1010 NOSIG
14:49 Parking Brakes off
14:57 VR= 186 Knots
14:57 V2= 190 Knots
14:57 Take-off
14:57 Take off Weight: 554209 Lbs
14:57 Wind: 150º @ 003 Knots Heading: 134º
14:57 POS N35º 50´ 22´´ E014º 29´ 58´´
14:57 N11 92 N12 92
14:57 Flaps:5º at 192 Knots
14:57 Gear Up: 161 Knots
14:58 Flaps:1º at 192 Knots
14:58 Flaps:Up at 211 Knots
15:12 Wind:285º@071 Knots Heading: 092º Ground Speed
: 549 Knots Altitude 33920 ft
15:14 TOC
15:14 Fuel Weight: 33111 Lb
15:27 Wind:266º@078 Knots Heading: 084º Ground Speed: 557 Knots Altitude 36958 ft
15:42 Wind:266º@072 Knots Heading: 086º Ground Speed: 551 Knots Altitude 36958 ft
15:57 Wind:268º@071 Knots Heading: 097º Ground Speed: 551 Knots Altitude 36879 ft
15:59 TOD
15:59 Fuel Weight: 21850 Lb
16:12 Wind:275º@037 Knots Heading: 093º Ground Speed: 392 Knots Altitude 12431 ft
16:24 Gear Down: 203 Knots
16:24 Flaps:1º at 202 Knots
16:24 Flaps:5º at 193 Knots
16:24 Flaps:15º at 187 Knots
16:25 Flaps:30º at 186 Knots
16:26 Flaps:35º at 163 Knots
16:26 Flaps:Full at 160 Knots
16:27 Wind:305º@006 Knots Heading: 011º Ground Speed: 155 Knots Altitude 1430 ft
16:28 TouchDown:Rate -68 ft/min Speed: 138 Knots
16:29 VATSIM:LTBS 112250Z 02005KT CAVOK 16/15 Q1009 NOSIG
16:29 Land
16:29 Wind:020º@005 Knots
16:29 Hea
ding: 015º
16:29 Flight Duration: 01:32
16:29 Landing Weight: 528709 Lbs
16:29 POS N36º 42´ 47´´ E028º 47´ 32´´
16:31 Parking brakes on
16:31 Block to Block Duration: 01:42
16:31 Final Fuel: 17400 Lbls
16:31 Spent Fuel: 26867 Lbls
16:31 Flight Length: 721 NM
16:31 TOD Land Length: 178 NM

Text Link of Flight Log http://www.candanair.net/acars/logs/CXD07920200613144600.txt
   

[ Back ]